Date,TemperatureHighF,TemperatureAvgF,TemperatureLowF,DewpointHighF,DewpointAvgF,DewpointLowF,HumidityHigh,HumidityAvg,HumidityLow,PressureMaxIn,PressureMinIn,WindSpeedMaxMPH,WindSpeedAvgMPH,GustSpeedMaxMPH,PrecipitationSumIn
2013-1-1,36,30,22,30,21,0,93,72,48,29.06,28.97,8,3,10,0.00
2013-1-2,37,19,10,14,5,0,79,55,33,29.21,29.03,6,1,8,0.00
2013-1-3,41,21,5,16,7,-5,75,55,31,29.21,29.09,0,0,0,0.00
2013-1-4,39,30,23,17,13,9,63,50,34,29.23,29.15,0,0,0,0.00
2013-1-5,30,21,15,20,11,8,78,67,56,29.32,29.23,0,0,0,0.00
2013-1-8,39,29,25,22,20,0,81,71,48,29.29,29.23,1,0,2,0.00
2013-1-9,53,37,23,38,26,18,87,67,41,29.44,29.15,7,2,10,0.05
2013-1-10,45,37,25,32,23,0,89,57,40,29.56,29.21,6,2,8,0.00
2013-1-11,61,47,39,54,39,0,98,75,48,29.21,28.88,9,2,13,0.37
2013-1-12,64,57,45,58,53,0,98,88,65,29.06,28.88,6,2,11,0.00
2013-1-13,67,61,42,58,54,40,97,77,57,29.00,28.79,13,3,18,0.12
2013-1-14,42,34,26,40,23,16,95,64,48,29.35,29.00,12,4,18,0.00
2013-1-15,37,30,22,22,17,0,83,59,43,29.35,29.03,5,2,6,0.00
2013-1-16,37,33,30,30,23,17,88,68,51,29.06,28.88,6,2,10,0.00
2013-1-17,38,34,28,26,22,11,77,63,47,29.21,29.00,10,2,15,0.00
2013-1-18,37,28,16,14,9,0,56,44,32,29.44,29.18,10,4,15,0.00
2013-1-19,57,44,33,21,17,14,46,34,22,29.18,28.79,12,5,24,0.00
2013-1-20,47,34,24,27,11,4,49,40,33,29.15,28.76,14,6,24,0.00
2013-1-21,29,20,10,17,6,-5,68,54,38,29.09,28.94,10,4,16,0.00
2013-1-22,21,10,6,2,-7,-15,59,47,34,29.23,29.09,9,4,13,0.00
2013-1-23,21,11,0,6,-9,-18,66,39,35,29.26,29.06,6,2,11,0.00
2013-1-24,30,18,0,8,2,-6,75,51,30,29.50,29.00,10,2,12,0.00
2013-1-25,26,18,14,14,4,-4,76,55,44,29.44,29.00,6,2,8,0.00
2013-1-26,39,24,17,21,13,0,79,62,39,29.38,29.06,8,2,11,0.00
2013-1-27,40,25,8,17,10,2,77,56,33,29.47,29.23,5,1,6,0.00
2013-1-28,50,41,31,49,40,17,98,94,56,29.23,28.97,7,2,12,0.46
2013-1-29,66,57,48,56,51,0,98,81,58,29.03,28.73,9,3,15,0.08
2013-1-30,67,58,37,58,50,32,95,76,52,28.73,28.23,19,6,28,0.54
2013-1-31,37,27,20,34,16,7,96,63,43,28.85,28.35,16,6,26,0.00
2013-2-1,25,16,13,8,1,-3,63,51,38,29.29,28.85,14,5,18,0.00
2013-2-2,28,19,10,21,9,-4,86,65,52,29.26,28.94,8,2,11,0.00
2013-2-3,33,23,16,21,12,0,88,66,42,29.06,28.85,8,3,13,0.00
2013-2-4,29,22,14,23,15,0,88,74,56,29.06,28.85,5,2,8,0.00
2013-2-5,37,29,25,28,22,15,94,78,52,28.94,28.82,6,1,9,0.00
2013-2-6,49,30,15,26,16,7,89,60,28,29.29,28.94,9,2,13,0.04
2013-2-7,56,33,14,26,19,7,81,58,28,29.26,28.88,6,2,8,0.17
2013-2-8,42,33,26,38,26,15,96,76,62,29.21,28.73,14,5,26,0.12
2013-2-9,42,28,18,18,14,0,77,56,33,29.38,29.21,10,2,15,0.00
2013-2-10,51,36,15,31,17,0,84,52,27,29.29,28.85,10,2,15,0.00
2013-2-11,59,46,36,45,32,19,98,60,29,28.94,28.70,14,6,20,0.00
2013-2-12,48,36,25,23,19,16,74,52,34,29.09,28.91,11,3,17,0.00
2013-2-13,37,29,23,28,22,18,85,74,59,28.91,28.70,7,1,8,0.00
2013-2-14,39,34,23,37,30,0,98,86,67,28.91,28.82,13,3,17,0.04
2013-2-15,42,33,25,30,24,0,89,70,40,29.09,28.91,10,2,14,0.00
2013-2-16,36,27,19,20,11,3,82,55,30,29.06,28.94,8,3,11,0.00
2013-2-17,32,19,12,13,6,0,77,56,34,29.21,28.97,11,4,17,0.00
2013-2-18,49,30,10,26,11,-2,72,46,29,29.23,28.79,11,3,14,0.00
2013-2-19,50,34,21,39,24,8,90,67,37,28.97,28.64,14,6,23,0.29
2013-2-20,28,21,18,15,8,4,77,57,39,29.21,28.97,12,4,16,0.00
2013-2-21,31,24,20,16,10,0,80,56,42,29.32,29.18,7,3,13,0.00
2013-2-22,42,33,23,38,25,9,95,73,55,29.23,28.91,6,2,9,0.00
2013-2-23,48,37,27,33,26,18,88,64,38,28.97,28.85,7,2,11,0.00
2013-2-24,36,31,26,24,18,13,81,59,42,29.12,28.88,8,2,13,0.00
2013-2-25,51,36,22,26,18,0,82,51,27,29.21,29.00,7,1,8,0.00
2013-2-26,40,36,31,38,27,16,96,72,42,29.03,28.53,0,0,0,0.79
2013-2-27,43,39,34,41,35,0,98,86,70,28.67,28.50,0,0,0,0.29
2013-2-28,38,34,32,32,29,26,94,81,74,28.85,28.59,0,0,0,0.00
2013-3-1,34,30,27,28,20,14,86,67,49,29.00,28.85,0,0,0,0.00
2013-3-2,33,28,25,22,18,12,83,68,46,29.00,28.94,0,0,0,0.00
2013-3-3,35,26,23,21,13,7,82,59,40,29.03,28.94,0,0,0,0.04
2013-3-4,45,30,18,16,11,8,69,47,28,29.12,29.00,0,0,0,0.00
2013-3-5,51,33,20,17,14,11,79,50,24,29.06,28.73,0,0,0,0.00
2013-3-9,62,51,37,28,22,0,67,34,24,29.35,29.12,6,2,6,0.00
2013-3-10,74,58,45,32,26,22,50,30,18,29.12,28.91,9,2,10,0.00
2013-3-11,62,56,45,49,34,23,95,49,25,28.91,28.64,9,4,9,0.54
2013-3-12,45,39,33,36,27,21,77,63,49,29.00,28.79,5,4,5,0.04
2013-3-13,33,31,29,29,27,26,93,86,75,28.97,28.91,4,4,4,0.00
2013-4-9,75,70,67,46,44,41,46,39,31,28.97,28.94,4,1,6,0.00
2013-4-10,82,68,59,67,55,45,98,66,37,28.97,28.82,12,2,17,2.12
2013-4-11,69,60,56,62,57,52,98,89,68,28.91,28.56,7,1,10,0.08
2013-4-12,60,50,43,60,41,30,98,72,48,28.85,28.47,10,3,15,0.46
2013-4-13,51,45,35,33,29,26,75,54,42,29.03,28.91,9,4,11,0.00
2013-4-14,69,50,29,37,29,26,96,53,22,29.12,28.97,6,2,8,0.00
2013-4-15,72,61,49,46,40,29,59,45,34,29.06,28.94,11,3,17,0.00
2013-4-16,84,65,54,58,52,45,98,65,34,29.18,29.00,16,4,21,0.21
2013-4-17,73,61,51,54,50,44,98,72,38,29.21,29.06,6,2,7,0.00
2013-4-18,88,73,57,59,51,40,97,53,20,29.06,28.73,12,5,20,0.00
2013-4-19,74,52,41,59,34,23,85,51,34,28.88,28.47,16,5,31,0.12
2013-4-20,50,42,33,28,21,15,69,45,29,29.38,28.88,10,5,18,0.00
2013-4-21,61,43,26,31,19,12,84,43,19,29.56,29.38,9,2,12,0.00
2013-4-22,74,54,32,32,24,17,73,36,19,29.41,29.21,10,2,12,0.00
2013-4-23,79,61,40,33,27,16,52,29,17,29.21,28.91,8,2,13,0.00
2013-4-24,62,52,35,56,43,31,94,73,34,29.18,28.73,14,3,22,0.71
2013-4-25,62,44,30,42,31,21,98,66,25,29.32,29.15,10,2,17,0.04
2013-4-26,69,50,33,45,28,14,96,53,17,29.44,29.32,6,1,7,0.00
2013-4-27,80,58,34,39,28,20,85,41,15,29.38,29.12,7,1,10,0.00
2013-4-28,62,54,48,57,48,34,98,80,52,29.12,28.88,4,1,8,0.83
2013-4-29,68,60,54,56,54,51,98,82,58,29.00,28.88,5,2,7,0.04
2013-4-30,85,65,48,60,47,39,98,61,23,29.15,29.00,6,2,9,0.00
2013-5-1,87,70,53,52,44,36,81,45,20,29.26,29.12,9,2,11,0.00
2013-5-2,87,69,51,39,34,27,51,29,18,29.29,29.18,7,2,12,0.00
2013-5-3,85,69,51,39,31,25,49,26,13,29.21,29.09,9,3,14,0.00
2013-5-4,79,65,52,37,30,23,45,29,15,29.15,29.03,9,3,11,0.00
2013-5-5,82,66,52,36,28,18,49,27,14,29.09,28.97,9,3,14,0.00
2013-5-6,84,66,54,47,37,18,56,36,19,29.03,28.97,8,3,12,0.00
2013-5-7,72,63,57,55,51,47,85,64,43,29.03,28.97,9,3,12,0.00
2013-5-8,85,67,58,54,46,36,83,53,21,29.00,28.91,7,2,10,0.00
2013-5-9,88,69,55,58,49,32,97,58,16,29.00,28.91,8,1,12,0.04
2013-5-10,78,65,59,61,57,53,97,77,44,28.97,28.82,8,2,14,0.37
2013-5-11,62,56,49,61,48,38,96,77,53,28.88,28.79,10,3,18,0.09
2013-5-12,58,48,36,40,26,18,83,46,26,29.09,28.88,13,4,22,0.00
2013-5-13,60,46,30,32,21,14,83,41,22,29.18,29.06,12,3,17,0.00
2013-5-14,74,53,33,35,29,21,74,43,21,29.15,28.85,7,1,10,0.00
2013-5-15,91,72,55,55,45,34,70,42,21,28.85,28.73,9,2,13,0.00
2013-5-16,89,72,59,64,46,32,97,49,15,29.00,28.82,6,1,9,0.33
2013-5-17,91,70,55,61,50,38,93,56,18,29.12,28.97,5,1,7,0.00
2013-5-18,88,71,52,58,47,38,72,45,23,29.12,29.03,4,1,7,0.00
2013-5-19,90,73,60,64,57,52,95,60,29,29.09,28.97,0,0,0,0.00
2013-5-20,91,75,64,67,62,58,92,67,38,29.03,28.91,6,1,11,0.00
2013-5-21,93,78,67,69,60,51,98,61,27,28.97,28.82,7,2,12,0.00
2013-5-22,92,77,65,61,55,46,80,50,23,28.88,28.76,8,3,16,0.00
2013-5-23,82,66,46,62,54,39,89,67,30,29.00,28.79,14,4,20,0.08
2013-5-24,54,46,36,40,30,24,84,55,32,29.29,29.00,13,5,18,0.00
2013-5-25,70,51,32,40,28,21,91,49,19,29.32,29.23,11,2,14,0.00
2013-5-26,77,56,34,39,28,20,87,41,15,29.29,29.21,8,2,10,0.00
2013-5-27,69,55,42,47,37,28,70,53,33,29.26,29.06,4,1,8,0.00
2013-5-28,90,70,55,67,55,46,93,63,29,29.06,28.94,7,2,13,0.29
2013-5-29,94,79,68,57,51,43,65,40,20,29.12,29.00,7,3,14,0.00
2013-5-30,97,79,63,62,54,44,85,47,18,29.18,29.06,6,1,12,0.00
2013-5-31,95,77,61,66,57,45,94,58,20,29.12,28.97,11,2,17,0.04
2013-6-1,89,77,65,68,60,55,94,61,34,29.00,28.79,9,2,17,0.38
2013-6-2,84,73,67,67,57,47,98,62,30,28.91,28.76,8,3,14,1.16
2013-6-3,76,64,48,55,44,29,75,51,24,29.09,28.88,7,3,9,0.00
2013-6-4,83,63,41,46,37,31,88,45,19,29.15,29.09,8,2,8,0.00
2013-6-5,90,70,50,53,42,36,78,41,18,29.15,28.94,6,2,9,0.00
2013-6-6,72,65,58,67,62,46,98,90,47,28.94,28.79,8,2,10,0.87
2013-6-7,66,60,57,58,55,53,98,84,67,28.88,28.79,7,3,9,0.00
2013-6-8,83,67,57,56,49,42,90,59,25,29.09,28.88,5,1,7,0.00
2013-6-9,89,72,58,64,55,49,84,59,30,29.15,29.00,6,1,10,0.00
2013-6-10,80,70,62,70,63,56,98,81,46,29.00,28.79,7,1,12,0.99
2013-6-11,86,72,62,66,60,50,98,70,32,28.91,28.82,10,2,13,0.05
2013-6-12,90,77,63,69,61,54,93,62,32,28.94,28.76,5,1,8,0.00
2013-6-13,78,69,61,67,56,39,97,68,31,28.85,28.56,12,4,21,0.41
2013-6-14,81,66,55,58,50,44,93,61,31,29.09,28.85,8,2,11,0.00
2013-6-15,89,68,49,56,47,37,95,55,19,29.12,29.00,6,1,9,0.00
2013-6-16,83,70,63,68,61,55,98,74,43,29.03,28.91,6,2,13,0.50
2013-6-17,95,74,64,73,62,46,98,76,22,29.00,28.91,8,1,14,0.37
2013-6-18,87,72,62,68,59,47,98,68,31,29.00,28.88,6,2,12,0.00
2013-6-19,86,68,52,49,42,34,80,44,19,29.15,29.00,7,2,10,0.00
2013-6-20,91,72,51,55,45,38,94,48,17,29.23,29.15,6,1,8,0.00
2013-6-21,95,76,56,58,50,41,91,49,17,29.26,29.15,4,1,6,0.00
2013-6-22,97,79,62,63,57,48,92,54,20,29.18,29.06,6,1,10,0.00
2013-6-23,97,82,67,70,59,45,94,53,19,29.15,29.06,6,1,11,0.00
2013-6-24,97,81,65,66,57,48,90,49,21,29.15,29.03,6,1,9,0.00
2013-6-25,95,79,68,68,63,58,98,61,31,29.06,28.88,10,2,14,1.50
2013-6-26,92,76,67,74,67,62,98,77,39,28.97,28.82,7,2,11,1.24
2013-6-27,87,74,67,71,66,58,98,79,41,28.82,28.67,6,1,10,0.46
2013-6-28,91,72,64,73,63,48,98,76,32,28.67,28.56,12,2,19,0.37
2013-6-29,87,70,61,66,60,53,96,73,37,28.70,28.59,7,1,11,0.25
2013-6-30,90,72,62,68,62,53,98,76,32,28.88,28.70,6,1,10,0.17
2013-7-1,89,71,66,69,64,57,92,80,39,28.97,28.85,6,1,9,0.37
2013-7-2,93,77,66,68,62,54,98,67,30,29.06,28.94,5,1,7,0.00
2013-7-3,94,77,69,70,64,54,93,70,28,29.18,29.06,5,1,9,0.17
2013-7-4,87,75,69,71,66,58,98,76,44,29.21,29.15,4,1,8,0.04
2013-7-5,88,74,68,71,67,61,98,81,44,29.21,29.12,6,1,11,0.12
2013-7-6,95,78,69,73,66,57,98,72,31,29.18,29.03,5,1,8,0.00
2013-7-7,90,76,68,67,61,55,86,62,33,29.12,29.03,5,2,8,0.00
2013-7-8,94,76,63,68,61,56,93,63,29,29.15,29.06,6,2,8,0.17
2013-7-9,96,76,69,73,69,63,98,84,38,29.12,28.97,7,1,13,0.95
2013-7-10,96,76,66,76,70,61,98,85,47,29.03,28.82,19,2,34,1.04
2013-7-11,86,73,61,68,56,42,98,61,27,29.03,28.94,10,2,12,0.00
2013-7-12,85,70,58,60,54,47,97,62,31,29.12,29.03,6,2,11,0.00
2013-7-13,93,77,62,63,58,51,92,57,27,29.23,29.12,6,2,8,0.00
2013-7-14,99,82,67,71,62,54,94,57,26,29.29,29.21,5,1,10,0.00
2013-7-15,104,85,69,73,62,50,97,55,18,29.35,29.26,5,1,6,0.00
2013-7-16,100,83,71,73,67,56,93,63,26,29.35,29.26,6,1,8,0.00
2013-7-17,99,85,72,77,67,57,98,61,26,29.32,29.18,8,2,10,0.00
2013-7-18,101,86,73,75,66,58,93,58,26,29.23,29.06,6,1,10,0.00
2013-7-19,100,82,72,75,66,57,93,64,26,29.06,28.91,7,1,17,0.08
2013-7-20,91,77,71,71,65,55,91,69,32,28.97,28.85,6,2,8,0.12
2013-7-21,96,78,70,69,64,52,91,65,25,29.00,28.94,3,0,6,0.00
2013-7-22,78,71,68,73,67,64,98,88,71,28.97,28.79,4,0,8,1.04
2013-7-23,92,74,65,70,64,56,98,77,38,28.85,28.70,10,2,13,0.80
2013-7-24,81,69,58,67,51,42,98,59,28,29.00,28.79,8,2,10,0.00
2013-7-25,85,67,51,56,45,35,95,53,19,29.12,29.00,6,1,8,0.00
2013-7-26,90,72,53,58,48,38,94,51,18,29.12,29.00,5,1,9,0.00
2013-7-27,75,68,64,64,60,55,87,75,62,29.03,28.85,6,1,10,0.08
2013-7-28,77,67,57,63,49,35,97,58,23,29.03,28.85,7,1,10,0.00
2013-7-29,80,66,54,56,46,36,90,54,24,29.21,29.03,7,1,9,0.00
2013-7-30,88,69,52,59,49,39,94,57,20,29.23,29.15,4,1,6,0.00
2013-7-31,81,69,60,64,58,53,89,70,42,29.18,28.97,3,0,4,0.00
2013-8-1,88,74,65,67,57,43,98,61,24,28.97,28.88,8,2,11,0.08
2013-8-2,82,70,57,62,53,38,95,59,24,29.03,28.94,6,1,10,0.00
2013-8-3,89,73,60,66,53,37,95,57,21,29.03,28.94,9,2,15,0.41
2013-8-4,83,68,56,60,48,37,93,55,22,29.12,29.00,10,2,13,0.00
2013-8-5,87,67,52,58,47,37,92,55,19,29.12,29.03,4,0,6,0.00
2013-8-6,92,73,56,62,50,40,92,52,18,29.03,28.97,4,1,7,0.00
2013-8-7,88,72,62,72,62,55,93,73,42,29.00,28.91,7,1,10,0.54
2013-8-8,94,77,69,72,68,61,98,78,37,29.00,28.91,6,1,7,0.71
2013-8-9,86,73,64,71,63,48,98,77,31,29.06,28.91,6,2,9,0.21
2013-8-10,93,74,62,65,57,50,93,61,27,29.12,29.03,5,1,10,0.04
2013-8-11,93,74,62,62,56,48,83,59,28,29.15,29.03,7,1,9,0.04
2013-8-12,93,76,60,65,57,48,95,59,24,29.09,28.88,6,1,9,0.00
2013-8-13,83,71,55,66,54,38,91,58,30,29.00,28.82,10,3,17,0.00
2013-8-14,75,60,50,53,45,39,92,60,31,29.15,29.00,7,2,11,0.00
2013-8-15,84,64,47,58,43,32,93,55,16,29.18,29.12,5,1,7,0.00
2013-8-16,86,68,52,56,44,35,88,50,19,29.18,29.12,6,1,8,0.00
2013-8-17,88,70,55,56,46,37,86,49,19,29.23,29.18,6,1,8,0.00
2013-8-18,79,68,59,61,56,51,83,66,44,29.21,29.15,0,0,0,0.00
2013-8-19,91,73,63,64,56,41,92,62,20,29.15,29.09,0,0,0,0.00
2013-8-20,93,74,58,64,53,42,95,58,18,29.21,29.12,0,0,0,0.00
2013-8-21,94,74,60,67,57,45,94,61,20,29.21,29.09,0,0,0,0.00
2013-8-22,89,73,64,66,62,56,91,71,38,29.12,29.00,0,0,0,0.00
2013-8-23,93,75,63,70,57,41,98,61,18,29.18,29.00,0,0,0,0.17
2013-8-24,90,71,55,58,46,34,89,51,15,29.32,29.18,0,0,0,0.00
2013-8-25,92,72,54,60,49,39,89,53,17,29.35,29.23,0,0,0,0.00
2013-8-26,94,75,60,63,55,45,87,56,21,29.26,29.06,0,0,0,0.00
2013-8-27,85,75,70,71,66,62,90,75,49,29.09,28.94,0,0,0,0.08
2013-8-28,89,78,72,72,67,61,91,70,41,28.97,28.85,0,0,0,0.00
2013-8-29,94,78,68,68,62,50,92,64,25,29.06,28.97,0,0,0,0.00
2013-8-30,96,78,63,70,61,50,98,63,24,29.06,28.85,0,0,0,0.00
2013-8-31,93,80,71,68,62,54,89,59,29,28.91,28.73,0,0,0,0.00
2013-9-1,90,78,70,71,63,54,93,63,32,28.85,28.79,0,0,0,0.00
2013-9-2,93,74,62,70,62,52,97,71,27,28.88,28.76,0,0,0,0.21
2013-9-3,73,64,55,61,52,41,95,68,34,29.06,28.88,0,0,0,0.00
2013-9-4,87,68,52,61,49,41,98,60,21,29.12,29.06,0,0,0,0.00
2013-9-5,84,67,54,63,45,25,92,53,15,29.23,29.09,8,2,10,0.00
2013-9-6,84,63,45,54,38,27,89,50,14,29.26,29.12,6,1,8,0.00
2013-9-7,89,68,48,54,46,36,87,52,18,29.12,28.97,5,1,8,0.00
2013-9-8,87,71,61,62,55,49,86,59,33,29.09,28.94,4,1,4,0.00
2013-9-9,94,72,56,63,55,48,83,60,26,29.09,29.00,6,1,9,0.00
2013-9-10,99,83,70,69,63,57,81,56,26,29.15,29.06,5,1,8,0.00
2013-9-11,99,82,72,71,62,50,88,56,20,29.18,29.03,6,2,9,0.00
2013-9-12,76,70,62,70,64,54,92,79,62,29.03,28.85,6,1,9,0.41
2013-9-13,73,59,51,58,48,38,98,70,32,29.09,28.85,11,3,15,0.17
2013-9-14,76,58,45,49,37,27,90,52,18,29.18,29.06,5,2,6,0.00
2013-9-15,75,58,43,52,42,32,90,60,23,29.18,29.06,4,1,8,0.00
2013-9-16,78,62,50,58,47,35,93,63,22,29.32,29.09,7,2,13,0.04
2013-9-17,80,59,42,47,40,32,93,57,20,29.35,29.21,5,1,8,0.00
2013-9-18,84,63,47,57,47,42,89,61,24,29.23,29.09,4,1,8,0.00
2013-9-19,80,69,63,62,58,52,83,69,41,29.15,29.03,4,1,6,0.00
2013-9-20,90,75,66,66,62,54,90,67,32,29.03,28.82,5,1,9,0.00
2013-9-21,75,66,55,66,57,40,95,75,32,28.82,28.70,10,2,11,0.66
2013-9-22,69,56,48,53,42,31,98,65,26,29.03,28.82,8,2,11,0.04
2013-9-23,60,54,51,47,43,33,81,69,37,29.15,29.03,5,1,6,0.00
2013-9-24,54,51,47,42,41,40,77,70,59,28.97,28.97,1,0,2,0.00
2013-9-25,65,47,44,56,43,39,94,87,65,28.97,28.91,4,0,5,0.00
2013-9-26,60,58,57,38,36,32,48,44,35,29.12,29.06,2,0,3,0.00
2013-9-27,84,61,46,54,40,31,92,53,17,29.21,29.09,7,1,10,0.00
2013-9-28,87,63,46,56,44,36,91,57,18,29.21,29.12,4,1,6,0.00
2013-9-29,83,65,52,55,49,42,87,61,27,29.15,29.00,5,1,7,0.00
2013-9-30,68,64,58,58,54,49,89,73,51,29.06,28.97,4,1,8,0.00
2013-10-1,85,66,54,64,52,40,98,69,23,29.09,29.00,6,1,10,0.00
2013-10-2,90,69,56,64,54,45,98,66,23,29.12,29.03,5,1,6,0.00
2013-10-3,90,69,60,66,61,49,98,78,29,29.09,29.03,7,0,12,0.55
2013-10-4,89,71,63,72,63,50,98,80,29,29.09,29.06,7,1,11,0.00
2013-10-5,83,70,65,71,66,58,98,88,47,29.09,29.00,4,0,6,1.41
2013-10-6,87,73,61,75,62,50,98,73,34,29.00,28.76,8,1,14,0.00
2013-10-7,66,56,49,54,42,32,98,63,31,29.12,28.76,8,2,15,0.62
2013-10-8,75,56,42,53,38,29,96,60,21,29.26,29.12,6,1,8,0.00
2013-10-9,78,55,39,49,35,24,93,57,15,29.29,29.21,6,1,12,0.00
2013-10-10,76,55,41,47,37,30,88,58,20,29.21,29.09,6,1,6,0.00
2013-10-11,79,60,45,50,42,27,90,58,17,29.09,29.03,7,1,10,0.00
2013-10-12,85,65,51,57,50,43,91,64,24,29.12,29.06,5,1,8,0.00
2013-10-13,82,65,60,58,55,46,90,71,33,29.26,29.12,7,1,8,0.08
2013-10-14,76,62,51,56,42,32,87,53,22,29.32,29.21,7,2,10,0.00
2013-10-15,71,59,47,57,50,38,86,74,52,29.23,28.94,4,1,6,0.00
2013-10-16,66,62,53,61,55,44,90,78,57,28.97,28.85,6,2,10,0.08
2013-10-17,62,51,42,51,45,38,96,81,45,28.94,28.76,6,1,9,0.29
2013-10-18,70,53,42,44,36,26,91,58,22,29.00,28.91,7,2,12,0.00
2013-10-19,57,46,42,45,38,34,86,75,47,28.94,28.73,9,2,13,0.13
2013-10-20,66,49,36,39,31,25,88,56,23,29.00,28.91,6,2,13,0.00
2013-10-21,70,53,39,40,30,22,78,47,19,29.00,28.82,8,2,13,0.00
2013-10-22,57,46,35,46,27,15,84,51,22,28.97,28.82,10,2,17,0.17
2013-10-23,44,40,36,36,31,21,82,69,40,28.91,28.76,7,2,10,0.04
2013-10-24,52,39,30,30,24,15,78,57,27,29.12,28.91,11,2,14,0.00
2013-10-25,54,38,29,30,23,17,85,58,26,29.29,29.12,7,2,11,0.00
2013-10-26,51,42,34,25,18,15,54,40,24,29.21,28.85,10,3,17,0.00
2013-10-27,60,41,29,39,24,18,82,54,22,29.09,28.97,7,1,10,0.00
2013-10-28,68,43,27,41,24,15,83,55,17,29.26,29.06,5,1,8,0.00
2013-10-29,66,46,32,43,30,24,88,59,23,29.35,29.21,5,0,6,0.00
2013-10-30,73,55,41,51,39,33,83,59,25,29.21,29.06,4,1,5,0.00
2013-10-31,68,62,58,58,53,44,92,74,45,29.06,28.38,10,3,20,0.37
2013-11-1,66,58,52,59,39,27,90,52,26,28.70,28.32,12,3,24,0.33
2013-11-2,55,48,44,41,38,27,86,69,38,29.00,28.67,8,2,12,0.08
2013-11-3,57,43,33,38,27,17,92,58,25,29.41,29.00,7,2,10,0.00
2013-11-4,54,39,27,20,18,14,70,45,23,29.44,29.32,6,1,9,0.00
2013-11-5,64,50,40,31,24,19,69,38,24,29.41,29.26,4,1,6,0.00
2013-11-6,72,56,38,57,39,30,93,58,25,29.26,28.88,10,2,15,0.42
2013-11-7,58,45,40,56,28,14,92,56,28,29.12,28.91,11,4,21,0.25
2013-11-8,50,38,27,30,19,12,78,50,26,29.26,29.09,8,2,12,0.00
2013-11-9,61,46,28,28,21,16,77,43,19,29.23,28.91,11,3,19,0.00
2013-11-10,51,43,30,30,22,15,68,45,29,29.26,28.97,11,4,18,0.00
2013-11-11,49,39,27,36,23,16,89,56,28,29.26,29.00,10,3,17,0.08
2013-11-12,43,31,26,31,19,12,92,63,40,29.47,29.12,10,4,14,0.08
2013-11-13,44,33,25,14,10,6,53,39,28,29.50,29.29,7,3,11,0.04
2013-11-14,53,40,27,14,10,6,48,30,18,29.29,29.12,9,4,13,0.05
2013-11-15,60,46,32,19,12,4,41,27,17,29.15,29.09,9,2,14,0.00
2013-11-16,62,48,33,46,34,17,72,59,40,29.18,28.94,6,2,10,0.00
2013-11-17,62,58,53,57,49,29,91,72,39,28.97,28.50,11,6,23,0.54
2013-11-18,56,47,38,33,24,15,65,42,25,29.09,28.64,13,6,20,0.00
2013-11-19,46,35,25,16,14,11,65,43,28,29.35,29.09,10,3,13,0.00
2013-11-20,50,34,22,22,12,4,75,45,19,29.38,29.26,7,2,10,0.00
2013-11-21,59,46,36,31,21,8,68,39,26,29.35,29.18,5,1,7,0.08
2013-11-22,53,48,36,51,41,22,94,77,49,29.29,29.09,12,3,19,0.12
2013-11-23,40,30,20,24,15,0,81,55,29,29.35,29.18,13,4,17,0.00
2013-11-24,29,20,14,7,0,-4,65,43,30,29.50,29.35,12,4,18,0.00
2013-11-25,21,16,14,4,2,1,59,53,44,29.44,29.35,5,2,6,0.00
2013-11-29,46,28,20,12,8,4,66,46,22,29.59,29.53,3,0,5,0.00
2013-11-30,46,29,18,19,14,10,77,57,29,29.53,29.18,6,1,8,0.04
2013-12-1,44,35,25,27,21,18,82,59,38,29.18,28.94,6,1,8,0.17
2013-12-2,48,37,30,30,27,23,78,66,42,28.94,28.82,6,1,8,0.12
2013-12-3,58,43,34,34,31,28,84,66,35,28.88,28.82,6,1,7,0.00
2013-12-4,62,49,36,43,37,32,88,64,38,28.94,28.82,6,1,9,0.00
2013-12-5,64,54,35,58,42,25,92,66,39,29.09,28.79,10,4,13,0.25
2013-12-6,35,32,28,30,26,22,87,80,63,29.29,29.06,8,3,11,0.08
2013-12-7,37,24,13,23,8,1,82,53,30,29.56,29.26,8,3,12,0.00
2013-12-8,31,24,13,28,12,4,89,62,41,29.53,29.00,7,3,11,0.00
2013-12-9,36,33,27,36,24,12,98,72,50,29.15,28.91,7,3,13,0.08
2013-12-10,37,25,18,17,7,-4,76,50,23,29.23,29.03,8,3,12,0.00
2013-12-11,35,24,16,16,6,2,67,48,31,29.35,29.21,10,3,15,0.00
2013-12-12,29,17,7,6,-6,-12,54,37,23,29.44,29.23,8,3,14,0.00
2013-12-13,42,27,15,13,4,-6,51,37,26,29.23,29.15,6,2,8,0.05
2013-12-14,37,33,28,36,24,11,98,71,46,29.18,28.67,4,1,8,0.16
2013-12-15,36,27,20,36,15,2,98,62,43,29.03,28.67,11,5,25,0.05
2013-12-16,30,23,18,19,6,1,75,49,33,29.15,28.97,7,2,12,0.00
2013-12-17,38,30,26,28,18,9,85,63,32,29.06,28.91,6,2,11,0.04
2013-12-18,33,28,22,18,12,7,70,53,37,29.18,29.03,6,3,12,0.00
2013-12-19,53,39,30,25,15,8,61,40,26,29.06,28.97,7,2,11,0.20
2013-12-20,55,49,39,50,33,19,89,57,33,28.97,28.85,10,4,15,0.09
2013-12-21,66,58,55,62,55,47,97,88,69,28.88,28.56,13,4,17,0.99
2013-12-22,70,59,48,61,45,32,98,62,36,28.97,28.50,14,5,25,0.46
2013-12-23,48,36,29,37,21,9,85,56,41,29.29,28.97,9,4,13,0.04
2013-12-24,29,20,12,17,4,-3,69,48,38,29.50,29.23,9,4,19,0.00
2013-12-25,32,22,10,18,3,-5,65,46,28,29.47,29.18,8,2,10,0.00
2013-12-26,41,32,27,19,11,3,64,43,23,29.32,29.06,9,4,16,0.00
2013-12-27,50,37,29,19,14,8,54,39,27,29.32,29.23,6,2,9,0.00
2013-12-28,56,43,35,22,17,14,46,36,25,29.23,29.03,8,3,13,0.00
2013-12-29,43,41,36,39,27,12,86,60,30,29.03,28.73,12,2,18,0.25
2013-12-30,35,26,23,26,9,1,81,50,33,29.21,28.91,10,4,18,0.00
2013-12-31,28,24,22,14,7,0,68,49,33,29.26,29.03,11,3,18,0.00
2014-1-1,38,28,24,16,13,10,62,54,40,29.26,29.06,5,2,6,0.00
2014-1-2,26,22,13,16,10,0,73,62,52,29.06,28.76,11,4,20,0.00